Time;durP1;ratioP1;P1;durP2;ratioP2;P2;SDS_P1;SDS_P2;PMS_P1;PMS_P2;Temp;Humidity;BMP_temperature;BMP_pressure;BME280_temperature;BME280_humidity;BME280_pressure;Samples;Min_cycle;Max_cycle;Signal;HPM_P1;HPM_P2
2023/01/16 00:01:59;;;;;;;2.92;1.00;;;5.50;99.90;;;;;;5014122;28;20048;-89
2023/01/16 00:04:33;;;;;;;2.72;1.20;;;5.50;99.90;;;;;;4999667;28;20552;-88
2023/01/16 00:14:33;;;;;;;3.65;0.93;;;5.50;99.90;;;;;;4956344;29;20098;-88
2023/01/16 00:17:05;;;;;;;4.03;1.27;;;5.40;99.90;;;;;;4957353;29;20035;-89
2023/01/16 00:19:34;;;;;;;3.65;1.20;;;5.30;99.90;;;;;;4959418;28;20031;-88
2023/01/16 00:22:08;;;;;;;3.58;1.20;;;5.30;99.90;;;;;;4976104;28;20035;-88
2023/01/16 00:25:23;;;;;;;2.60;1.42;;;5.30;99.90;;;;;;4959790;28;20507;-88
2023/01/16 00:27:52;;;;;;;2.83;1.58;;;5.20;99.90;;;;;;4959950;28;20038;-87
2023/01/16 00:30:25;;;;;;;5.63;1.90;;;5.20;99.90;;;;;;4975792;28;20512;-89
2023/01/16 00:32:51;;;;;;;3.97;1.75;;;5.20;99.90;;;;;;4975858;28;20042;-90
2023/01/16 00:35:41;;;;;;;5.20;2.03;;;5.20;99.90;;;;;;4959326;28;20087;-90
2023/01/16 00:41:31;;;;;;;5.80;3.45;;;5.20;99.90;;;;;;5016812;28;20101;-88
2023/01/16 00:48:07;;;;;;;6.20;4.40;;;5.20;99.90;;;;;;5016695;28;20084;-89
2023/01/16 00:50:58;;;;;;;7.53;5.47;;;5.20;99.90;;;;;;5015420;28;20141;-89
2023/01/16 00:53:36;;;;;;;7.85;5.20;;;5.20;99.90;;;;;;4985527;28;20042;-89
2023/01/16 00:56:08;;;;;;;10.85;6.95;;;5.20;99.90;;;;;;4999321;28;20398;-89
2023/01/16 00:58:36;;;;;;;10.35;6.93;;;5.20;99.90;;;;;;4998797;28;20089;-88
2023/01/16 01:01:05;;;;;;;9.32;7.47;;;5.20;99.90;;;;;;4998762;28;20468;-89
2023/01/16 01:03:32;;;;;;;11.27;8.75;;;5.20;99.90;;;;;;4998834;28;20032;-89
2023/01/16 01:06:24;;;;;;;10.85;8.80;;;5.20;99.90;;;;;;5016171;28;20045;-89
2023/01/16 01:08:50;;;;;;;9.65;7.80;;;5.20;99.90;;;;;;4999120;28;20148;-89
2023/01/16 01:15:17;;;;;;;9.45;7.57;;;5.20;99.90;;;;;;5015373;28;20053;-89
2023/01/16 01:21:05;;;;;;;8.93;6.50;;;5.20;99.90;;;;;;4949111;28;20041;-89
2023/01/16 01:24:26;;;;;;;10.30;6.95;;;5.10;99.90;;;;;;5012753;28;20089;-88
2023/01/16 02:22:18;;;;;;;8.40;2.28;;;5.00;99.90;;;;;;5034741;28;20048;-88
2023/01/16 02:25:14;;;;;;;5.13;2.50;;;5.00;99.90;;;;;;5016676;28;20053;-87
2023/01/16 02:27:58;;;;;;;6.10;2.40;;;5.00;99.90;;;;;;5034648;28;20077;-88
2023/01/16 02:37:07;;;;;;;4.03;1.90;;;4.60;99.90;;;;;;5034155;28;20041;-88
2023/01/16 02:43:11;;;;;;;6.85;1.70;;;4.40;99.90;;;;;;5034389;28;20036;-88
2023/01/16 02:46:14;;;;;;;3.80;1.52;;;4.30;99.90;;;;;;5016482;28;20382;-89
2023/01/16 02:48:47;;;;;;;5.40;1.42;;;4.20;99.90;;;;;;5016773;28;20033;-88
2023/01/16 02:51:38;;;;;;;5.07;1.35;;;4.20;99.90;;;;;;5016424;28;20040;-88
2023/01/16 02:54:52;;;;;;;9.52;1.90;;;4.10;99.90;;;;;;5016378;28;20029;-88
2023/01/16 02:57:19;;;;;;;4.95;1.35;;;4.10;99.90;;;;;;5033962;28;20478;-89
2023/01/16 02:59:50;;;;;;;6.70;1.33;;;4.10;99.90;;;;;;5016983;28;20059;-88
2023/01/16 03:02:19;;;;;;;5.72;1.58;;;4.00;99.90;;;;;;5016168;28;20577;-88
2023/01/16 03:04:50;;;;;;;5.38;1.60;;;4.00;99.90;;;;;;5016169;28;20037;-88
2023/01/16 03:07:29;;;;;;;5.40;1.40;;;4.00;99.90;;;;;;5033618;28;20041;-88
2023/01/16 03:10:37;;;;;;;5.03;1.45;;;4.00;99.90;;;;;;5015827;28;20108;-89
2023/01/16 03:16:36;;;;;;;5.43;1.45;;;4.00;99.90;;;;;;5033748;28;20036;-88
2023/01/16 03:22:43;;;;;;;5.13;1.15;;;3.90;99.90;;;;;;5032829;28;20078;-89
2023/01/16 03:28:39;;;;;;;5.03;1.53;;;3.90;99.90;;;;;;5014592;28;20033;-89
2023/01/16 03:31:17;;;;;;;8.80;1.40;;;3.90;99.90;;;;;;5013620;28;20042;-89
2023/01/16 03:37:14;;;;;;;5.97;1.30;;;3.90;99.90;;;;;;5015004;28;20068;-89
2023/01/16 03:39:46;;;;;;;5.95;2.15;;;3.80;99.90;;;;;;5018168;28;20038;-88
2023/01/16 03:45:40;;;;;;;7.70;1.55;;;3.80;99.90;;;;;;5012144;28;20045;-88
2023/01/16 03:48:11;;;;;;;3.72;1.33;;;3.80;99.90;;;;;;5000153;28;20042;-88
2023/01/16 03:57:48;;;;;;;4.82;1.08;;;3.80;99.90;;;;;;5017220;28;20030;-88
2023/01/16 04:00:17;;;;;;;3.80;0.80;;;3.70;99.90;;;;;;5000301;28;20056;-88
2023/01/16 04:06:42;;;;;;;7.07;1.40;;;3.80;99.90;;;;;;5017526;28;20041;-89
2023/01/16 04:09:34;;;;;;;4.97;1.40;;;3.80;99.90;;;;;;4999811;28;20076;-89
2023/01/16 04:12:07;;;;;;;3.50;1.15;;;3.80;99.90;;;;;;5016581;28;20049;-89
2023/01/16 04:14:35;;;;;;;2.80;0.97;;;3.80;99.90;;;;;;4983064;28;20116;-88
2023/01/16 04:20:25;;;;;;;2.95;0.95;;;3.80;99.90;;;;;;5017182;28;20029;-88
2023/01/16 04:22:50;;;;;;;5.40;1.05;;;3.80;99.90;;;;;;4999098;28;20509;-89
2023/01/16 04:25:22;;;;;;;7.28;1.27;;;3.80;99.90;;;;;;5018177;28;20054;-88
2023/01/16 04:27:48;;;;;;;4.90;1.50;;;3.90;99.90;;;;;;5000249;28;20038;-89
2023/01/16 04:30:15;;;;;;;4.35;0.90;;;3.90;99.90;;;;;;4999290;28;20085;-88
2023/01/16 04:32:42;;;;;;;2.90;0.80;;;3.90;99.90;;;;;;4999218;28;20090;-88
2023/01/16 04:35:08;;;;;;;2.20;0.65;;;3.90;99.90;;;;;;4999135;28;20042;-89
2023/01/16 04:37:40;;;;;;;3.53;0.63;;;3.90;99.90;;;;;;4999326;28;20034;-88
2023/01/16 04:40:08;;;;;;;3.40;0.88;;;3.80;99.90;;;;;;4998875;28;20034;-88
2023/01/16 04:42:39;;;;;;;2.50;0.85;;;3.80;99.90;;;;;;4999090;28;20037;-88
2023/01/16 04:45:05;;;;;;;3.10;1.10;;;3.80;99.90;;;;;;4998400;28;20037;-89
2023/01/16 04:47:46;;;;;;;5.55;1.40;;;3.70;99.90;;;;;;5015604;28;20034;-87
2023/01/16 04:50:12;;;;;;;5.10;1.38;;;3.70;99.90;;;;;;5016130;28;20042;-88
2023/01/16 04:52:41;;;;;;;10.45;2.22;;;3.70;99.90;;;;;;5016116;28;20489;-88
2023/01/16 04:55:10;;;;;;;4.30;1.40;;;3.70;99.90;;;;;;5016449;28;20060;-89
2023/01/16 04:57:36;;;;;;;4.82;1.63;;;3.70;99.90;;;;;;4998861;28;20050;-88
2023/01/16 05:00:35;;;;;;;6.05;1.40;;;3.70;99.90;;;;;;4999061;28;20193;-88
2023/01/16 05:03:01;;;;;;;4.57;1.02;;;3.70;99.90;;;;;;5016394;28;20076;-88
2023/01/16 05:05:28;;;;;;;1.92;0.75;;;3.60;99.90;;;;;;4998862;28;20059;-88
2023/01/16 05:08:18;;;;;;;5.47;1.20;;;3.60;99.90;;;;;;4998862;28;20530;-88
2023/01/16 05:17:28;;;;;;;4.75;1.60;;;3.60;99.90;;;;;;5016039;28;20111;-88
2023/01/16 05:19:55;;;;;;;4.53;1.33;;;3.60;99.90;;;;;;5015951;28;20034;-89
2023/01/16 05:24:46;;;;;;;5.78;1.50;;;3.70;99.90;;;;;;5032218;28;20064;-88
2023/01/16 05:27:21;;;;;;;2.70;1.25;;;3.70;99.90;;;;;;5017964;28;20057;-87
2023/01/16 05:29:50;;;;;;;4.53;1.50;;;3.70;99.90;;;;;;5017169;28;20037;-88
2023/01/16 05:32:22;;;;;;;5.57;1.50;;;3.80;99.90;;;;;;5035514;28;20485;-88
2023/01/16 05:34:50;;;;;;;4.68;1.40;;;3.70;99.90;;;;;;5017258;28;20037;-88
2023/01/16 05:37:16;;;;;;;4.68;1.73;;;3.70;99.90;;;;;;5018008;28;20037;-87
2023/01/16 05:39:42;;;;;;;5.53;1.70;;;3.80;99.90;;;;;;5017784;28;20371;-88
2023/01/16 05:42:20;;;;;;;5.72;2.00;;;3.80;99.90;;;;;;5015780;28;20469;-88
2023/01/16 05:44:48;;;;;;;3.38;1.50;;;3.90;99.90;;;;;;5016887;28;20433;-87
2023/01/16 05:47:17;;;;;;;5.13;1.42;;;3.90;99.90;;;;;;5017339;28;20029;-88
2023/01/16 05:49:43;;;;;;;4.72;1.60;;;4.00;99.90;;;;;;5016995;28;20045;-88
2023/01/16 05:52:16;;;;;;;3.97;1.58;;;4.00;99.90;;;;;;5017090;28;20137;-88
2023/01/16 05:54:45;;;;;;;3.63;1.40;;;4.00;99.90;;;;;;5016914;28;20614;-88
2023/01/16 05:57:12;;;;;;;4.80;1.50;;;4.10;99.90;;;;;;5016486;28;20069;-89
2023/01/16 05:59:38;;;;;;;5.13;1.33;;;4.20;99.90;;;;;;4999167;28;20038;-88
2023/01/16 06:02:03;;;;;;;7.60;1.83;;;4.20;99.90;;;;;;5015711;28;20178;-88
2023/01/16 06:04:29;;;;;;;4.15;1.50;;;4.20;99.90;;;;;;5016260;28;20038;-89
2023/01/16 06:06:58;;;;;;;3.65;1.30;;;4.20;99.90;;;;;;5033168;28;20036;-88
2023/01/16 06:09:24;;;;;;;5.82;1.30;;;4.20;99.90;;;;;;5019588;28;20445;-88
2023/01/16 06:11:49;;;;;;;3.65;0.98;;;4.20;99.90;;;;;;5016225;28;20096;-88
2023/01/16 06:14:15;;;;;;;3.00;1.05;;;4.20;99.90;;;;;;5016693;28;20037;-87
2023/01/16 06:16:44;;;;;;;3.90;1.02;;;4.20;99.90;;;;;;5016408;28;20029;-89
2023/01/16 06:19:13;;;;;;;5.70;1.33;;;4.30;99.90;;;;;;5033660;28;20026;-87
2023/01/16 06:21:53;;;;;;;4.90;1.20;;;4.30;99.90;;;;;;5016398;28;20040;-88
2023/01/16 06:24:19;;;;;;;5.15;1.00;;;4.30;99.90;;;;;;5029617;28;20053;-89
2023/01/16 06:26:52;;;;;;;4.07;1.33;;;4.30;99.90;;;;;;5035515;28;20112;-89
2023/01/16 06:29:17;;;;;;;8.63;1.67;;;4.40;99.90;;;;;;5050627;28;20112;-88
2023/01/16 06:31:43;;;;;;;4.82;2.10;;;4.40;99.90;;;;;;5035731;28;20036;-88
2023/01/16 06:34:12;;;;;;;6.07;2.42;;;4.40;99.90;;;;;;5008734;28;20041;-88
2023/01/16 06:39:46;;;;;;;5.63;2.47;;;4.40;99.90;;;;;;5049822;28;20091;-88
2023/01/16 06:42:14;;;;;;;5.28;2.55;;;4.40;99.90;;;;;;5033403;28;20030;-88
2023/01/16 06:44:40;;;;;;;6.05;2.45;;;4.40;99.90;;;;;;5033856;28;20029;-87
2023/01/16 06:47:17;;;;;;;7.10;2.83;;;4.40;99.90;;;;;;5015540;28;20033;-89
2023/01/16 06:50:24;;;;;;;5.97;2.30;;;4.30;99.90;;;;;;5015613;28;20042;-88
2023/01/16 06:53:01;;;;;;;4.75;2.28;;;4.30;99.90;;;;;;5032707;28;20509;-88
2023/01/16 06:55:27;;;;;;;3.92;1.83;;;4.20;99.90;;;;;;5033253;28;20124;-88
2023/01/16 06:57:57;;;;;;;5.50;1.67;;;4.30;99.90;;;;;;5015960;28;20112;-88
2023/01/16 07:00:28;;;;;;;5.60;2.50;;;4.20;99.90;;;;;;5015678;28;20034;-89
2023/01/16 07:03:22;;;;;;;3.13;1.10;;;4.20;99.90;;;;;;5016311;28;20049;-88
2023/01/16 07:06:01;;;;;;;;;;;4.20;99.90;;;;;;5035727;28;20064;-90
2023/01/16 07:08:39;;;;;;;;;;;;;;;;;;;;;
2023/01/16 07:11:49;;;;;;;4.70;1.17;;;4.20;99.90;;;;;;5032813;28;20071;-88
2023/01/16 07:24:53;;;;;;;4.13;1.25;;;4.10;99.90;;;;;;4959585;28;20082;-88
2023/01/16 07:27:29;;;;;;;5.72;1.30;;;4.10;99.90;;;;;;4910742;29;20189;-88
2023/01/16 07:30:08;;;;;;;4.72;1.42;;;4.10;99.90;;;;;;4950294;29;20043;-89
2023/01/16 07:32:57;;;;;;;4.55;1.63;;;4.10;99.90;;;;;;4952434;29;20032;-89
2023/01/16 07:35:29;;;;;;;8.77;1.90;;;4.10;99.90;;;;;;4914398;29;20468;-91
2023/01/16 07:38:32;;;;;;;6.78;1.83;;;4.10;99.90;;;;;;4914264;29;20036;-90
2023/01/16 07:41:09;;;;;;;7.50;2.05;;;4.10;99.90;;;;;;4931971;29;20032;-89
2023/01/16 07:44:13;;;;;;;6.25;2.25;;;4.10;99.90;;;;;;4925181;29;20107;-92
2023/01/16 07:47:00;;;;;;;;;;;;;;;;;;;;;
2023/01/16 07:49:26;;;;;;;6.65;2.10;;;4.10;99.90;;;;;;4950596;28;20047;-90
2023/01/16 07:51:58;;;;;;;5.38;2.35;;;4.20;99.90;;;;;;5011907;28;20442;-91
2023/01/16 07:54:29;;;;;;;7.25;1.73;;;4.20;99.90;;;;;;5012399;28;20096;-91
2023/01/16 07:57:06;;;;;;;5.70;2.38;;;4.10;99.90;;;;;;5012601;28;20038;-90
2023/01/16 07:59:43;;;;;;;5.68;1.90;;;4.10;99.90;;;;;;4994758;28;20042;-90
2023/01/16 08:02:19;;;;;;;6.13;2.03;;;4.20;99.90;;;;;;4994825;28;20041;-90
2023/01/16 08:05:24;;;;;;;;;;;;;;;;;;;;;
2023/01/16 08:08:03;;;;;;;;;;;;;;;;;;;;;
2023/01/16 08:13:57;;;;;;;4.95;1.60;;;4.20;99.90;;;;;;5005032;28;20044;-91
2023/01/16 08:17:02;;;;;;;3.78;1.50;;;4.20;99.90;;;;;;5012726;28;20038;-91
2023/01/16 08:19:59;;;;;;;6.30;1.48;;;4.20;99.90;;;;;;4994647;28;20049;-92
2023/01/16 08:22:32;;;;;;;4.63;1.33;;;4.20;99.90;;;;;;4972880;28;20034;-89
2023/01/16 08:28:17;;;;;;;1.83;0.87;;;4.20;99.90;;;;;;5021414;28;19909;-90
2023/01/16 08:30:53;;;;;;;4.00;1.20;;;4.20;99.90;;;;;;5035485;28;20096;-92
2023/01/16 08:33:35;;;;;;;4.32;1.25;;;4.20;99.90;;;;;;5035416;28;20033;-90
2023/01/16 08:36:02;;;;;;;2.17;1.00;;;4.20;99.90;;;;;;5017901;28;20034;-89
2023/01/16 08:38:31;;;;;;;2.10;1.08;;;4.30;99.90;;;;;;5017615;28;20486;-90
2023/01/16 08:57:12;;;;;;;5.32;1.40;;;4.30;99.90;;;;;;5018147;28;20026;-89
2023/01/16 08:59:39;;;;;;;4.05;1.10;;;4.30;99.90;;;;;;5009759;28;20046;-89
2023/01/16 09:02:52;;;;;;;;;;;;;;;;;;;;;
2023/01/16 09:05:23;;;;;;;5.43;1.50;;;4.40;99.90;;;;;;5015951;28;20026;-89
2023/01/16 09:08:34;;;;;;;5.07;1.50;;;4.40;99.90;;;;;;5014297;28;20641;-88
2023/01/16 09:14:23;;;;;;;5.30;1.83;;;4.40;99.90;;;;;;5055407;28;20123;-89
2023/01/16 09:16:52;;;;;;;4.55;1.30;;;4.40;99.90;;;;;;5054670;28;20319;-89
2023/01/16 09:22:11;;;;;;;5.50;1.92;;;4.40;99.90;;;;;;5052219;28;20121;-89
2023/01/16 09:24:44;;;;;;;3.47;1.70;;;4.40;99.90;;;;;;5017185;28;20129;-88
2023/01/16 09:30:27;;;;;;;7.30;2.85;;;4.50;99.90;;;;;;4984414;28;20065;-89
2023/01/16 09:32:53;;;;;;;5.53;2.45;;;4.50;99.90;;;;;;5014024;28;20081;-88
2023/01/16 09:38:58;;;;;;;5.75;2.60;;;4.50;99.90;;;;;;5020640;28;20460;-90
2023/01/16 09:45:19;;;;;;;7.32;2.92;;;4.50;99.90;;;;;;5035069;28;20064;-88
2023/01/16 09:51:40;;;;;;;4.95;2.70;;;4.50;99.90;;;;;;4960003;28;20097;-88
2023/01/16 10:00:30;;;;;;;10.40;3.67;;;4.50;99.90;;;;;;5015338;28;20096;-88
2023/01/16 10:02:58;;;;;;;6.28;3.60;;;4.60;99.90;;;;;;5014179;28;20096;-89
2023/01/16 10:05:36;;;;;;;5.85;3.47;;;4.60;99.90;;;;;;5035843;28;20492;-88
2023/01/16 10:08:53;;;;;;;7.43;3.92;;;4.60;99.90;;;;;;5054012;28;20524;-88
2023/01/16 10:11:35;;;;;;;5.05;3.03;;;4.60;99.90;;;;;;5039904;28;20095;-86
2023/01/16 10:17:57;;;;;;;8.57;4.20;;;4.60;99.90;;;;;;5059344;28;20102;-88
2023/01/16 10:21:11;;;;;;;6.30;3.00;;;4.50;99.90;;;;;;5036080;28;20052;-88
2023/01/16 10:23:46;;;;;;;6.22;3.25;;;4.50;99.90;;;;;;4983654;28;20054;-88
2023/01/16 10:26:23;;;;;;;5.25;3.30;;;4.50;99.90;;;;;;5033944;28;20033;-87
2023/01/16 10:29:04;;;;;;;5.80;3.40;;;4.50;99.90;;;;;;5033897;28;20534;-91
2023/01/16 10:32:05;;;;;;;5.65;2.97;;;4.50;99.90;;;;;;5015614;28;20473;-88
2023/01/16 10:35:17;;;;;;;5.13;3.15;;;4.50;99.90;;;;;;5033093;28;20044;-89
2023/01/16 10:37:51;;;;;;;4.07;2.65;;;4.50;99.90;;;;;;5034591;28;20025;-89
2023/01/16 10:40:51;;;;;;;6.57;2.85;;;4.50;99.90;;;;;;5035857;28;20033;-87
2023/01/16 10:49:39;;;;;;;4.40;2.58;;;4.50;99.90;;;;;;5054976;28;20397;-88
2023/01/16 10:52:20;;;;;;;6.97;2.50;;;4.50;99.90;;;;;;5048793;28;20045;-88
2023/01/16 10:58:41;;;;;;;4.65;2.15;;;4.50;99.90;;;;;;5053625;28;20512;-88
2023/01/16 11:04:48;;;;;;;2.72;1.75;;;4.50;99.90;;;;;;4973099;28;20049;-88
2023/01/16 11:07:25;;;;;;;6.03;2.10;;;4.50;99.90;;;;;;4943123;28;20162;-89
2023/01/16 11:19:27;;;;;;;2.72;1.48;;;4.60;99.90;;;;;;5033529;28;20040;-89
2023/01/16 11:22:07;;;;;;;4.00;1.42;;;4.70;99.90;;;;;;5032447;28;20033;-88
2023/01/16 11:24:44;;;;;;;2.08;1.15;;;4.70;99.90;;;;;;5014202;28;20046;-91
2023/01/16 11:27:34;;;;;;;3.58;1.50;;;4.70;99.90;;;;;;5015223;28;20488;-89
2023/01/16 11:30:06;;;;;;;3.55;0.90;;;4.80;99.90;;;;;;5003065;28;20042;-88
2023/01/16 11:33:18;;;;;;;4.25;1.15;;;4.80;99.90;;;;;;5005158;28;20036;-92
2023/01/16 11:35:45;;;;;;;4.68;1.13;;;4.90;99.90;;;;;;5002335;28;20030;-90
2023/01/16 11:38:14;;;;;;;2.05;0.90;;;5.10;99.90;;;;;;4995506;28;20037;-89
2023/01/16 11:41:33;;;;;;;1.45;0.80;;;5.30;99.90;;;;;;4995687;28;20095;-88
2023/01/16 11:48:04;;;;;;;3.42;0.90;;;5.40;99.90;;;;;;4933068;29;20038;-89
2023/01/16 11:50:58;;;;;;;3.72;0.70;;;5.30;99.90;;;;;;5012104;28;20386;-90
2023/01/16 11:54:10;;;;;;;2.63;0.70;;;5.20;99.90;;;;;;5015781;28;20049;-88
2023/01/16 11:57:26;;;;;;;2.78;0.80;;;5.20;99.90;;;;;;4996432;28;20486;-88
2023/01/16 12:00:32;;;;;;;3.08;0.90;;;5.10;99.90;;;;;;4999049;28;20042;-88
2023/01/16 12:03:30;;;;;;;3.13;0.80;;;5.10;99.90;;;;;;5016843;28;20030;-88
2023/01/16 12:09:15;;;;;;;1.35;0.68;;;5.30;99.90;;;;;;5028038;28;20044;-88
2023/01/16 12:11:41;;;;;;;;;;;5.30;99.90;;;;;;5003655;28;20033;-88
2023/01/16 12:14:51;;;;;;;2.50;1.10;;;5.30;99.90;;;;;;5002027;28;20311;-89
2023/01/16 12:17:52;;;;;;;3.10;1.00;;;5.30;99.90;;;;;;5018576;28;20034;-89
2023/01/16 12:21:00;;;;;;;3.00;1.00;;;5.40;99.90;;;;;;5018751;28;20045;-91
2023/01/16 12:23:39;;;;;;;2.72;0.98;;;5.40;99.90;;;;;;5019722;28;20099;-88
2023/01/16 12:26:41;;;;;;;1.13;0.70;;;5.50;99.90;;;;;;5056339;28;20033;-88
2023/01/16 12:29:32;;;;;;;;;;;;;;;;;;;;;
2023/01/16 12:32:34;;;;;;;2.72;1.00;;;5.50;99.90;;;;;;5051169;28;20067;-89
2023/01/16 12:35:22;;;;;;;3.22;1.27;;;5.50;99.90;;;;;;5030353;28;20180;-88
2023/01/16 12:38:40;;;;;;;4.90;1.27;;;5.50;99.90;;;;;;5036245;28;20034;-88
2023/01/16 12:44:53;;;;;;;3.95;0.90;;;5.60;99.90;;;;;;4974916;28;20563;-88
2023/01/16 12:48:00;;;;;;;2.88;0.88;;;5.60;99.90;;;;;;4965929;28;20118;-88
2023/01/16 12:50:34;;;;;;;3.03;0.98;;;5.50;99.90;;;;;;4949286;28;20176;-89
2023/01/16 12:53:32;;;;;;;2.78;1.00;;;5.50;99.90;;;;;;5014454;28;20037;-89
2023/01/16 12:56:17;;;;;;;4.45;0.80;;;5.60;99.90;;;;;;5014977;28;20038;-91
2023/01/16 12:58:54;;;;;;;2.38;1.00;;;5.60;99.90;;;;;;5006047;28;20040;-89
2023/01/16 13:01:35;;;;;;;2.95;0.90;;;5.70;99.90;;;;;;5018265;28;20041;-88
2023/01/16 13:04:23;;;;;;;1.58;0.80;;;5.90;99.90;;;;;;5017598;28;20036;-89
2023/01/16 13:06:57;;;;;;;5.18;0.80;;;6.00;99.90;;;;;;5034472;28;20037;-88
2023/01/16 13:15:43;;;;;;;1.30;0.70;;;5.90;99.90;;;;;;5035567;28;20117;-89
2023/01/16 13:18:51;;;;;;;1.65;0.60;;;5.80;99.90;;;;;;5011304;28;20045;-89
2023/01/16 13:21:41;;;;;;;2.80;1.00;;;5.80;99.90;;;;;;5014448;28;20499;-88
2023/01/16 13:24:42;;;;;;;2.13;0.70;;;5.70;99.90;;;;;;5028092;28;20049;-88
2023/01/16 13:27:21;;;;;;;2.63;1.08;;;5.70;99.90;;;;;;5020041;28;20033;-90
2023/01/16 13:30:04;;;;;;;3.15;0.90;;;5.70;99.90;;;;;;5032807;28;20494;-89
2023/01/16 13:32:40;;;;;;;2.20;1.00;;;5.70;99.90;;;;;;5034704;28;20136;-88
2023/01/16 13:35:23;;;;;;;1.98;1.00;;;5.60;99.90;;;;;;5014178;28;20025;-88
2023/01/16 13:38:33;;;;;;;2.50;0.85;;;5.60;99.90;;;;;;5032921;28;20042;-90
2023/01/16 13:41:23;;;;;;;4.85;1.00;;;5.60;99.90;;;;;;4999831;28;20041;-92
2023/01/16 13:48:12;;;;;;;1.88;0.90;;;5.50;99.90;;;;;;4955013;29;20578;-88
2023/01/16 13:51:05;;;;;;;2.53;0.90;;;5.50;99.90;;;;;;4953707;29;20174;-88
2023/01/16 13:53:40;;;;;;;1.70;1.00;;;5.50;99.90;;;;;;5033819;28;20037;-88
2023/01/16 13:56:36;;;;;;;1.20;0.60;;;5.50;99.90;;;;;;5016317;28;20037;-90
2023/01/16 14:05:55;;;;;;;1.25;0.57;;;5.40;99.90;;;;;;5034502;28;20152;-90
2023/01/16 14:09:10;;;;;;;3.80;0.85;;;5.40;99.90;;;;;;5023023;28;20041;-89
2023/01/16 14:12:25;;;;;;;;;;;;;;;;;;;;;
2023/01/16 14:18:37;;;;;;;1.58;0.70;;;5.20;99.90;;;;;;5026939;28;20041;-89
2023/01/16 14:21:28;;;;;;;5.90;1.10;;;5.20;99.90;;;;;;5015648;28;20433;-89
2023/01/16 14:24:01;;;;;;;4.18;1.20;;;5.10;99.90;;;;;;5009858;28;20053;-89
2023/01/16 14:26:53;;;;;;;3.85;1.38;;;5.00;99.90;;;;;;5033456;28;20041;-88
2023/01/16 14:33:14;;;;;;;5.03;1.20;;;5.00;99.90;;;;;;5023631;28;20116;-89
2023/01/16 14:36:03;;;;;;;3.10;1.27;;;4.90;99.90;;;;;;5025523;28;20036;-89
2023/01/16 14:38:33;;;;;;;2.50;1.00;;;5.00;99.90;;;;;;5019604;28;20824;-91
2023/01/16 14:56:34;;;;;;;2.25;1.23;;;4.90;99.90;;;;;;5033038;28;20075;-89
2023/01/16 14:59:29;;;;;;;3.58;1.38;;;4.90;99.90;;;;;;5014968;28;20120;-88
2023/01/16 15:02:20;;;;;;;2.58;1.30;;;5.00;99.90;;;;;;5010817;28;20030;-88
2023/01/16 15:05:13;;;;;;;4.43;1.83;;;5.00;99.90;;;;;;5015160;28;20053;-89
2023/01/16 15:07:50;;;;;;;2.67;1.50;;;5.00;99.90;;;;;;5014801;28;20041;-90
2023/01/16 15:10:37;;;;;;;2.10;1.38;;;5.00;99.90;;;;;;5015002;28;20048;-89
2023/01/16 15:13:18;;;;;;;2.70;1.33;;;5.00;99.90;;;;;;5014453;28;20078;-88
2023/01/16 15:15:51;;;;;;;2.55;1.40;;;5.00;99.90;;;;;;5015264;28;20152;-89
2023/01/16 15:24:27;;;;;;;3.10;2.22;;;5.10;99.90;;;;;;5021369;28;20056;-88
2023/01/16 15:27:16;;;;;;;3.85;2.38;;;5.10;99.90;;;;;;5013686;28;20034;-90
2023/01/16 15:30:12;;;;;;;4.75;2.80;;;5.10;99.90;;;;;;5013854;28;20065;-90
2023/01/16 15:36:19;;;;;;;3.38;2.70;;;5.10;99.90;;;;;;4982126;28;20050;-88
2023/01/16 15:38:58;;;;;;;4.60;3.42;;;5.10;99.90;;;;;;4977484;28;20046;-89
2023/01/16 15:48:13;;;;;;;;;;;;;;;;;;;;;
2023/01/16 15:51:00;;;;;;;6.53;3.67;;;5.10;99.90;;;;;;5035613;28;20046;-89
2023/01/16 15:53:45;;;;;;;6.55;4.18;;;5.10;99.90;;;;;;5022752;28;20040;-89
2023/01/16 15:57:06;;;;;;;4.90;3.15;;;5.10;99.90;;;;;;5023896;28;20025;-90
2023/01/16 15:59:38;;;;;;;4.53;3.50;;;5.10;99.90;;;;;;5017605;28;20059;-90
2023/01/16 16:02:31;;;;;;;4.28;3.30;;;5.10;99.90;;;;;;5017556;28;20196;-90
2023/01/16 16:05:03;;;;;;;5.07;3.17;;;5.10;99.90;;;;;;5017270;28;20048;-90
2023/01/16 16:08:13;;;;;;;;;;;;;;;;;;;;;
2023/01/16 16:18:01;;;;;;;4.05;2.83;;;5.10;99.90;;;;;;5038844;28;20036;-92
2023/01/16 16:24:38;;;;;;;5.90;2.72;;;5.10;99.90;;;;;;5011475;28;20091;-90
2023/01/16 16:27:41;;;;;;;3.95;3.10;;;5.10;99.90;;;;;;5006287;28;20402;-92
2023/01/16 16:31:11;;;;;;;3.70;2.95;;;5.00;99.90;;;;;;5008721;28;20042;-90
2023/01/16 16:33:55;;;;;;;4.60;3.08;;;5.10;99.90;;;;;;4931105;29;20516;-92
2023/01/16 16:37:15;;;;;;;5.07;3.80;;;5.10;99.90;;;;;;4996675;28;20498;-90
2023/01/16 16:40:32;;;;;;;6.00;4.50;;;5.10;99.90;;;;;;5012934;28;20041;-90
2023/01/16 16:43:41;;;;;;;;;;;;;;;;;;;;;
2023/01/16 16:46:36;;;;;;;5.93;4.60;;;5.10;99.90;;;;;;5002035;28;20048;-89
2023/01/16 16:49:34;;;;;;;4.88;3.72;;;5.10;99.90;;;;;;5015393;28;20041;-88
2023/01/16 16:52:45;;;;;;;6.82;4.85;;;5.10;99.90;;;;;;5007863;28;20101;-89
2023/01/16 16:55:50;;;;;;;6.28;4.30;;;5.10;99.90;;;;;;4953634;28;20093;-89
2023/01/16 16:58:40;;;;;;;7.15;4.22;;;5.10;99.90;;;;;;4949142;28;20064;-89
2023/01/16 17:05:07;;;;;;;;;;;;;;;;;;;;;
2023/01/16 17:07:38;;;;;;;5.22;3.88;;;5.20;99.90;;;;;;5020951;28;20037;-89
2023/01/16 17:10:16;;;;;;;5.13;3.47;;;5.10;99.90;;;;;;5012907;28;20046;-88
2023/01/16 17:13:01;;;;;;;4.88;3.28;;;5.20;99.90;;;;;;5003513;28;20111;-88
2023/01/16 17:16:10;;;;;;;;;;;;;;;;;;;;;
2023/01/16 17:18:50;;;;;;;3.17;1.92;;;5.10;99.90;;;;;;5005519;28;20077;-91
2023/01/16 17:21:47;;;;;;;2.83;1.70;;;5.10;99.90;;;;;;4992316;28;20115;-90
2023/01/16 17:28:45;;;;;;;;;;;;;;;;;;;;;
2023/01/16 17:32:15;;;;;;;;;;;;;;;;;;;;;
2023/01/16 17:51:31;;;;;;;;;;;5.00;99.90;;;;;;4843353;29;20113;-90
2023/01/16 17:58:42;;;;;;;;;;;;;;;;;;;;;
2023/01/16 18:01:37;;;;;;;;;;;;;;;;;;;;;
2023/01/16 18:04:55;;;;;;;;;;;;;;;;;;;;;
2023/01/16 18:17:39;;;;;;;;;;;;;;;;;;;;;
2023/01/16 18:24:17;;;;;;;;;;;;;;;;;;;;;
2023/01/16 18:27:21;;;;;;;10.25;6.88;;;5.00;99.90;;;;;;4951148;28;20047;-90
2023/01/16 19:05:02;;;;;;;;;;;;;;;;;;;;;
2023/01/16 19:08:27;;;;;;;9.57;8.55;;;4.00;99.90;;;;;;5016673;28;20039;-90
2023/01/16 19:15:12;;;;;;;;;;;;;;;;;;;;;
2023/01/16 19:18:25;;;;;;;11.68;9.13;;;3.90;99.90;;;;;;4960744;28;20038;-90
2023/01/16 19:24:40;;;;;;;12.20;10.48;;;3.90;99.90;;;;;;4949959;28;20037;-91
2023/01/16 19:28:03;;;;;;;11.65;10.35;;;3.90;99.90;;;;;;4940486;28;20038;-90
2023/01/16 19:46:42;;;;;;;11.10;9.82;;;3.90;99.90;;;;;;5031283;28;20178;-91
2023/01/16 19:53:06;;;;;;;9.95;7.72;;;3.90;99.90;;;;;;4968663;28;20026;-89
2023/01/16 19:56:07;;;;;;;8.35;6.63;;;3.90;99.90;;;;;;5014877;28;20026;-89
2023/01/16 19:58:57;;;;;;;8.60;7.10;;;3.80;99.90;;;;;;5015492;28;20398;-90
2023/01/16 20:08:20;;;;;;;8.23;6.07;;;3.80;99.90;;;;;;5022188;28;20029;-90
2023/01/16 20:15:00;;;;;;;8.45;7.05;;;3.90;99.90;;;;;;4936817;28;20049;-91
2023/01/16 20:18:47;;;;;;;;;;;;;;;;;;;;;
2023/01/16 20:21:49;;;;;;;;;;;;;;;;;;;;;
2023/01/16 20:24:46;;;;;;;;;;;;;;;;;;;;;
2023/01/16 20:27:29;;;;;;;;;;;;;;;;;;;;;
2023/01/16 20:30:17;;;;;;;;;;;;;;;;;;;;;
2023/01/16 20:33:46;;;;;;;7.45;6.05;;;4.00;99.90;;;;;;5016967;28;20276;-91
2023/01/16 20:36:43;;;;;;;6.63;5.93;;;4.00;99.90;;;;;;5029407;28;20498;-90
2023/01/16 20:39:12;;;;;;;7.75;6.13;;;4.00;99.90;;;;;;5015273;28;20041;-92
2023/01/16 20:48:01;;;;;;;9.80;7.00;;;4.00;99.90;;;;;;5037100;28;20041;-91
2023/01/16 20:54:31;;;;;;;7.80;6.15;;;4.00;99.90;;;;;;4987230;28;20026;-91
2023/01/16 21:01:30;;;;;;;8.00;5.97;;;4.10;99.90;;;;;;5027325;28;20038;-92
2023/01/16 21:34:29;;;;;;;8.95;4.57;;;4.20;99.90;;;;;;5013655;28;20057;-89
2023/01/16 21:41:10;;;;;;;;;;;;;;;;;;;;;
2023/01/16 21:52:12;;;;;;;;;;;;;;;;;;;;;
2023/01/16 21:55:19;;;;;;;6.20;4.20;;;4.30;99.90;;;;;;4895232;29;20032;-90
2023/01/16 21:58:27;;;;;;;8.88;4.18;;;4.30;99.90;;;;;;4885062;29;20115;-91
2023/01/16 22:01:14;;;;;;;5.82;4.28;;;4.20;99.90;;;;;;4917057;29;20035;-91
2023/01/16 22:07:21;;;;;;;;;;;;;;;;;;;;;
2023/01/16 22:27:18;;;;;;;;;;;;;;;;;;;;;
2023/01/16 22:33:52;;;;;;;3.45;1.70;;;4.00;99.90;;;;;;4852874;29;20049;-90
2023/01/16 22:37:12;;;;;;;;;;;;;;;;;;;;;
2023/01/16 22:49:59;;;;;;;3.50;2.20;;;3.80;99.90;;;;;;4960928;28;20122;-91
2023/01/16 22:52:52;;;;;;;3.38;1.92;;;3.80;99.90;;;;;;4997960;28;20045;-90
2023/01/16 22:55:36;;;;;;;3.47;1.90;;;3.90;99.90;;;;;;5013406;28;20057;-90
2023/01/16 22:58:08;;;;;;;4.05;1.90;;;3.90;99.90;;;;;;4996821;28;20030;-90
2023/01/16 23:00:42;;;;;;;4.17;1.87;;;3.90;99.90;;;;;;4996643;28;20038;-89
2023/01/16 23:03:10;;;;;;;3.78;1.77;;;3.90;99.90;;;;;;4996542;28;20042;-90
2023/01/16 23:05:41;;;;;;;3.60;1.90;;;3.90;99.90;;;;;;5013927;28;20096;-90
2023/01/16 23:08:13;;;;;;;3.35;1.83;;;3.90;99.90;;;;;;4996990;28;20042;-90
2023/01/16 23:11:19;;;;;;;;;;;;;;;;;;;;;
2023/01/16 23:17:11;;;;;;;;;;;;;;;;;;;;;
2023/01/16 23:19:40;;;;;;;4.10;1.48;;;3.90;99.90;;;;;;4935731;29;20048;-93
2023/01/16 23:22:13;;;;;;;2.40;1.63;;;3.80;99.90;;;;;;4935444;29;20377;-89
2023/01/16 23:24:48;;;;;;;3.33;1.48;;;3.80;99.90;;;;;;4950860;28;20033;-91
2023/01/16 23:27:17;;;;;;;5.53;1.90;;;3.80;99.90;;;;;;4995720;28;20116;-92